createdAt,value
2018-08-31T00:00:06.748Z,7.11
2018-08-31T00:06:01.736Z,7.42
2018-08-31T00:11:56.746Z,7.67
2018-08-31T00:17:51.822Z,7.41
2018-08-31T00:23:46.757Z,7.47
2018-08-31T00:29:41.779Z,7.96
2018-08-31T00:35:36.743Z,7.63
2018-08-31T00:41:31.774Z,8
2018-08-31T00:47:26.779Z,8.17
2018-08-31T00:53:21.782Z,7.65
2018-08-31T00:59:16.773Z,7.42
2018-08-31T01:05:11.777Z,7.46
2018-08-31T01:11:06.772Z,7.92
2018-08-31T01:17:01.815Z,7.01
2018-08-31T01:22:56.847Z,8.36
2018-08-31T01:28:51.898Z,7.64
2018-08-31T01:34:46.803Z,8.1
2018-08-31T01:40:41.804Z,8.4
2018-08-31T01:46:36.844Z,8.09
2018-08-31T01:52:31.857Z,8.33
2018-08-31T01:58:26.815Z,7.83
2018-08-31T02:04:21.861Z,8
2018-08-31T02:10:16.826Z,8.34
2018-08-31T02:16:11.859Z,8.46
2018-08-31T02:22:06.838Z,8.84
2018-08-31T02:28:01.825Z,7.53
2018-08-31T02:33:56.841Z,7.47
2018-08-31T02:39:51.893Z,8.35
2018-08-31T02:45:46.885Z,8.38
2018-08-31T02:51:41.847Z,8.8
2018-08-31T02:57:36.890Z,9.14
2018-08-31T03:03:31.854Z,8.21
2018-08-31T03:09:26.852Z,8.34
2018-08-31T03:15:21.863Z,7.36
2018-08-31T03:21:16.974Z,7.2
2018-08-31T03:27:11.871Z,7.9
2018-08-31T03:33:06.898Z,7.72
2018-08-31T03:39:01.911Z,7.97
2018-08-31T03:44:56.959Z,7.4
2018-08-31T03:50:51.957Z,7.98
2018-08-31T03:56:46.901Z,7.82
2018-08-31T04:02:41.901Z,7.93
2018-08-31T04:08:36.920Z,7.48
2018-08-31T04:14:31.935Z,7.51
2018-08-31T04:20:26.928Z,8.14
2018-08-31T04:26:21.935Z,8.28
2018-08-31T04:32:16.978Z,8.25
2018-08-31T04:38:11.915Z,8.49
2018-08-31T04:44:06.938Z,8.54
2018-08-31T04:50:02.015Z,8.11
2018-08-31T04:55:56.956Z,7.87
2018-08-31T05:01:51.967Z,8.43
2018-08-31T05:07:46.955Z,8.39
2018-08-31T05:13:42.035Z,8.64
2018-08-31T05:19:37.015Z,8.9
2018-08-31T05:25:31.986Z,8.54
2018-08-31T05:31:26.977Z,7.47
2018-08-31T05:37:21.960Z,7.57
2018-08-31T05:43:16.979Z,8.31
2018-08-31T05:49:11.967Z,8.06
2018-08-31T05:55:06.990Z,8.35
2018-08-31T06:01:01.991Z,8.19
2018-08-31T06:06:56.977Z,8.12
2018-08-31T06:12:51.988Z,8.07
2018-08-31T06:18:47.008Z,8.42
2018-08-31T06:24:42.053Z,7.99
2018-08-31T06:30:37.040Z,8.12
2018-08-31T06:36:32.052Z,7.5
2018-08-31T06:42:27.003Z,8.21
2018-08-31T06:48:22.007Z,7.47
2018-08-31T06:54:17.043Z,8.46
2018-08-31T07:00:12.016Z,7.8
2018-08-31T07:06:07.086Z,7.82
2018-08-31T07:12:02.022Z,7.28
2018-08-31T07:17:57.048Z,8.36
2018-08-31T07:23:52.044Z,7.29
2018-08-31T07:29:47.105Z,7.5
2018-08-31T07:35:42.094Z,8.27
2018-08-31T07:41:37.045Z,8.36
2018-08-31T07:47:32.097Z,8.3
2018-08-31T07:53:27.089Z,9.15
2018-08-31T07:59:22.053Z,8.67
2018-08-31T08:05:17.046Z,8.43
2018-08-31T08:11:12.076Z,8.49
2018-08-31T08:17:07.087Z,8.14
2018-08-31T08:23:02.069Z,7.76
2018-08-31T08:28:57.119Z,6.17
2018-08-31T08:34:52.090Z,7.04
2018-08-31T08:40:47.138Z,6.06
2018-08-31T08:46:42.108Z,6.65
2018-08-31T08:52:37.093Z,6.6
2018-08-31T08:58:32.153Z,5.6
2018-08-31T09:04:27.143Z,5.55
2018-08-31T09:10:22.125Z,5.29
2018-08-31T09:16:17.149Z,5.94
2018-08-31T09:22:12.129Z,5.6
2018-08-31T09:28:07.149Z,5.46
2018-08-31T09:34:02.162Z,5.68
2018-08-31T09:39:57.167Z,6.24
2018-08-31T09:45:52.152Z,5.71
2018-08-31T09:51:47.175Z,5.81
2018-08-31T09:57:42.198Z,5.67
2018-08-31T10:03:37.227Z,5.44
2018-08-31T10:09:32.167Z,6.41
2018-08-31T10:15:27.160Z,6.55
2018-08-31T10:21:22.185Z,6.45
2018-08-31T10:27:17.242Z,6.17
2018-08-31T10:33:12.246Z,6.6
2018-08-31T10:39:07.189Z,6.47
2018-08-31T10:45:02.206Z,6.44
2018-08-31T10:50:57.223Z,6.8
2018-08-31T10:56:52.216Z,6.08
2018-08-31T11:02:47.243Z,5.64
2018-08-31T11:08:42.217Z,5.38
2018-08-31T11:14:37.246Z,6.44
2018-08-31T11:20:32.212Z,6.71
2018-08-31T11:26:27.256Z,6.23
2018-08-31T11:32:22.224Z,5.66
2018-08-31T11:38:17.243Z,5.53
2018-08-31T11:44:12.244Z,6.01
2018-08-31T11:50:07.267Z,6.21
2018-08-31T11:56:02.243Z,6.52
2018-08-31T12:01:57.304Z,6.83
2018-08-31T12:07:52.418Z,6.75
2018-08-31T12:13:47.295Z,7.16
2018-08-31T12:19:42.278Z,7.03
2018-08-31T12:25:37.298Z,7.27
2018-08-31T12:31:32.292Z,7.69
2018-08-31T12:37:27.264Z,7.1
